sensor_id;sensor_type;location;lat;lon;timestamp;P1;durP1;ratioP1;P2;durP2;ratioP2
67675;SDS011;54456;48.436;10.028;2024-01-30T00:00:34;40.73;;;16.23;;
67675;SDS011;54456;48.436;10.028;2024-01-30T00:02:04;45.15;;;16.00;;
67675;SDS011;54456;48.436;10.028;2024-01-30T00:03:35;47.37;;;15.93;;
67675;SDS011;54456;48.436;10.028;2024-01-30T00:05:05;42.40;;;14.10;;
67675;SDS011;54456;48.436;10.028;2024-01-30T00:06:35;43.40;;;15.88;;
67675;SDS011;54456;48.436;10.028;2024-01-30T00:08:06;47.07;;;16.10;;
67675;SDS011;54456;48.436;10.028;2024-01-30T00:09:37;46.28;;;16.45;;
67675;SDS011;54456;48.436;10.028;2024-01-30T00:11:09;52.97;;;17.08;;
67675;SDS011;54456;48.436;10.028;2024-01-30T00:12:39;43.28;;;14.43;;
67675;SDS011;54456;48.436;10.028;2024-01-30T00:14:09;30.30;;;12.37;;
67675;SDS011;54456;48.436;10.028;2024-01-30T00:15:40;39.38;;;13.90;;
67675;SDS011;54456;48.436;10.028;2024-01-30T00:17:10;43.17;;;13.18;;
67675;SDS011;54456;48.436;10.028;2024-01-30T00:18:40;42.80;;;13.97;;
67675;SDS011;54456;48.436;10.028;2024-01-30T00:20:11;43.00;;;14.70;;
67675;SDS011;54456;48.436;10.028;2024-01-30T00:21:41;38.33;;;14.30;;
67675;SDS011;54456;48.436;10.028;2024-01-30T00:23:11;36.57;;;15.07;;
67675;SDS011;54456;48.436;10.028;2024-01-30T00:24:42;42.23;;;14.60;;
67675;SDS011;54456;48.436;10.028;2024-01-30T00:26:12;46.87;;;16.63;;
67675;SDS011;54456;48.436;10.028;2024-01-30T00:27:42;32.70;;;14.65;;
67675;SDS011;54456;48.436;10.028;2024-01-30T00:29:13;36.03;;;13.80;;
67675;SDS011;54456;48.436;10.028;2024-01-30T04:15:30;38.33;;;11.32;;
67675;SDS011;54456;48.436;10.028;2024-01-30T04:17:01;38.25;;;12.40;;
67675;SDS011;54456;48.436;10.028;2024-01-30T04:18:31;43.77;;;14.37;;
67675;SDS011;54456;48.436;10.028;2024-01-30T04:20:02;35.15;;;12.57;;
67675;SDS011;54456;48.436;10.028;2024-01-30T04:21:33;37.30;;;12.25;;
67675;SDS011;54456;48.436;10.028;2024-01-30T04:23:03;43.03;;;13.80;;
67675;SDS011;54456;48.436;10.028;2024-01-30T04:24:33;37.95;;;13.23;;
67675;SDS011;54456;48.436;10.028;2024-01-30T04:26:04;37.73;;;13.37;;
67675;SDS011;54456;48.436;10.028;2024-01-30T04:27:34;56.10;;;17.23;;
67675;SDS011;54456;48.436;10.028;2024-01-30T04:29:04;48.40;;;14.93;;
67675;SDS011;54456;48.436;10.028;2024-01-30T04:32:09;45.10;;;15.52;;
67675;SDS011;54456;48.436;10.028;2024-01-30T04:33:39;34.47;;;12.63;;
67675;SDS011;54456;48.436;10.028;2024-01-30T04:35:10;47.33;;;15.50;;
67675;SDS011;54456;48.436;10.028;2024-01-30T04:36:40;39.03;;;11.70;;
67675;SDS011;54456;48.436;10.028;2024-01-30T04:38:14;36.70;;;12.50;;
67675;SDS011;54456;48.436;10.028;2024-01-30T04:39:44;39.20;;;13.70;;
67675;SDS011;54456;48.436;10.028;2024-01-30T04:41:14;45.60;;;14.13;;
67675;SDS011;54456;48.436;10.028;2024-01-30T04:42:45;43.27;;;13.37;;
67675;SDS011;54456;48.436;10.028;2024-01-30T04:44:15;32.40;;;11.47;;
67675;SDS011;54456;48.436;10.028;2024-01-30T04:45:45;40.20;;;13.17;;
67675;SDS011;54456;48.436;10.028;2024-01-30T04:47:16;37.30;;;14.43;;
67675;SDS011;54456;48.436;10.028;2024-01-30T04:48:46;36.33;;;12.95;;
67675;SDS011;54456;48.436;10.028;2024-01-30T04:50:16;44.40;;;12.93;;
67675;SDS011;54456;48.436;10.028;2024-01-30T04:51:47;38.05;;;11.38;;
67675;SDS011;54456;48.436;10.028;2024-01-30T04:53:17;35.17;;;10.97;;
67675;SDS011;54456;48.436;10.028;2024-01-30T04:54:47;21.53;;;8.80;;
67675;SDS011;54456;48.436;10.028;2024-01-30T04:56:18;34.00;;;11.63;;
67675;SDS011;54456;48.436;10.028;2024-01-30T04:57:48;31.73;;;11.00;;
67675;SDS011;54456;48.436;10.028;2024-01-30T04:59:19;37.15;;;12.90;;
67675;SDS011;54456;48.436;10.028;2024-01-30T05:00:49;38.50;;;12.93;;
67675;SDS011;54456;48.436;10.028;2024-01-30T05:02:21;35.35;;;11.80;;
67675;SDS011;54456;48.436;10.028;2024-01-30T05:03:52;31.77;;;11.30;;
67675;SDS011;54456;48.436;10.028;2024-01-30T05:05:22;30.23;;;10.52;;
67675;SDS011;54456;48.436;10.028;2024-01-30T05:06:52;18.08;;;6.88;;
67675;SDS011;54456;48.436;10.028;2024-01-30T05:08:23;14.48;;;5.25;;
67675;SDS011;54456;48.436;10.028;2024-01-30T05:09:53;24.53;;;8.13;;
67675;SDS011;54456;48.436;10.028;2024-01-30T05:11:24;30.30;;;10.68;;
67675;SDS011;54456;48.436;10.028;2024-01-30T05:12:54;27.60;;;10.50;;
67675;SDS011;54456;48.436;10.028;2024-01-30T05:14:25;35.05;;;11.60;;
67675;SDS011;54456;48.436;10.028;2024-01-30T05:15:55;31.40;;;11.90;;
67675;SDS011;54456;48.436;10.028;2024-01-30T05:17:26;34.77;;;12.67;;
67675;SDS011;54456;48.436;10.028;2024-01-30T05:18:56;30.60;;;10.77;;
67675;SDS011;54456;48.436;10.028;2024-01-30T05:20:26;19.23;;;7.88;;
67675;SDS011;54456;48.436;10.028;2024-01-30T05:22:00;33.63;;;12.23;;
67675;SDS011;54456;48.436;10.028;2024-01-30T05:23:30;32.37;;;11.73;;
67675;SDS011;54456;48.436;10.028;2024-01-30T05:25:01;26.90;;;9.38;;
67675;SDS011;54456;48.436;10.028;2024-01-30T05:26:31;20.80;;;7.90;;
67675;SDS011;54456;48.436;10.028;2024-01-30T05:28:02;36.73;;;12.00;;
67675;SDS011;54456;48.436;10.028;2024-01-30T05:29:32;17.20;;;7.00;;
67675;SDS011;54456;48.436;10.028;2024-01-30T05:31:03;28.52;;;11.10;;
67675;SDS011;54456;48.436;10.028;2024-01-30T05:32:34;26.60;;;8.82;;
67675;SDS011;54456;48.436;10.028;2024-01-30T05:34:04;17.33;;;7.00;;
67675;SDS011;54456;48.436;10.028;2024-01-30T05:35:36;23.55;;;9.40;;
67675;SDS011;54456;48.436;10.028;2024-01-30T05:37:07;25.73;;;9.53;;
67675;SDS011;54456;48.436;10.028;2024-01-30T05:38:37;19.15;;;8.98;;
67675;SDS011;54456;48.436;10.028;2024-01-30T05:40:08;32.95;;;10.68;;
67675;SDS011;54456;48.436;10.028;2024-01-30T05:41:38;24.38;;;9.13;;
67675;SDS011;54456;48.436;10.028;2024-01-30T05:43:08;26.00;;;10.23;;
67675;SDS011;54456;48.436;10.028;2024-01-30T05:44:39;25.30;;;9.57;;
67675;SDS011;54456;48.436;10.028;2024-01-30T05:46:09;30.63;;;9.57;;
67675;SDS011;54456;48.436;10.028;2024-01-30T05:47:39;30.65;;;10.43;;
67675;SDS011;54456;48.436;10.028;2024-01-30T05:49:10;31.33;;;9.90;;
67675;SDS011;54456;48.436;10.028;2024-01-30T05:50:40;39.70;;;13.50;;
67675;SDS011;54456;48.436;10.028;2024-01-30T05:52:10;32.17;;;10.93;;
67675;SDS011;54456;48.436;10.028;2024-01-30T05:53:41;26.70;;;10.23;;
67675;SDS011;54456;48.436;10.028;2024-01-30T05:55:11;30.20;;;10.00;;
67675;SDS011;54456;48.436;10.028;2024-01-30T05:56:42;35.00;;;11.40;;
67675;SDS011;54456;48.436;10.028;2024-01-30T05:58:12;44.80;;;15.00;;
67675;SDS011;54456;48.436;10.028;2024-01-30T05:59:43;35.27;;;13.27;;
67675;SDS011;54456;48.436;10.028;2024-01-30T06:01:14;34.67;;;12.43;;
67675;SDS011;54456;48.436;10.028;2024-01-30T06:02:45;35.67;;;13.05;;
67675;SDS011;54456;48.436;10.028;2024-01-30T06:04:15;52.63;;;17.77;;
67675;SDS011;54456;48.436;10.028;2024-01-30T06:05:45;32.10;;;12.63;;
67675;SDS011;54456;48.436;10.028;2024-01-30T06:07:16;47.87;;;13.70;;
67675;SDS011;54456;48.436;10.028;2024-01-30T06:08:47;38.30;;;13.07;;
67675;SDS011;54456;48.436;10.028;2024-01-30T06:10:17;37.23;;;12.67;;
67675;SDS011;54456;48.436;10.028;2024-01-30T06:11:48;34.67;;;12.50;;
67675;SDS011;54456;48.436;10.028;2024-01-30T06:13:19;41.92;;;14.68;;
67675;SDS011;54456;48.436;10.028;2024-01-30T06:14:50;36.70;;;12.80;;
67675;SDS011;54456;48.436;10.028;2024-01-30T06:16:20;40.50;;;13.77;;
67675;SDS011;54456;48.436;10.028;2024-01-30T06:17:52;40.22;;;12.57;;
67675;SDS011;54456;48.436;10.028;2024-01-30T06:19:22;41.33;;;13.03;;
67675;SDS011;54456;48.436;10.028;2024-01-30T06:20:53;25.23;;;10.33;;
67675;SDS011;54456;48.436;10.028;2024-01-30T06:22:23;39.23;;;12.77;;
67675;SDS011;54456;48.436;10.028;2024-01-30T06:23:53;38.20;;;13.80;;
67675;SDS011;54456;48.436;10.028;2024-01-30T06:25:24;41.83;;;12.77;;
67675;SDS011;54456;48.436;10.028;2024-01-30T06:26:54;36.50;;;12.07;;
67675;SDS011;54456;48.436;10.028;2024-01-30T06:28:24;43.45;;;12.30;;
67675;SDS011;54456;48.436;10.028;2024-01-30T06:29:55;25.33;;;7.38;;
67675;SDS011;54456;48.436;10.028;2024-01-30T06:31:25;32.38;;;11.20;;
67675;SDS011;54456;48.436;10.028;2024-01-30T06:32:56;35.13;;;12.40;;
67675;SDS011;54456;48.436;10.028;2024-01-30T06:34:26;28.05;;;11.95;;
67675;SDS011;54456;48.436;10.028;2024-01-30T06:35:57;36.03;;;11.87;;
67675;SDS011;54456;48.436;10.028;2024-01-30T06:37:27;33.67;;;12.00;;
67675;SDS011;54456;48.436;10.028;2024-01-30T06:38:57;35.00;;;12.43;;
67675;SDS011;54456;48.436;10.028;2024-01-30T06:40:27;30.97;;;11.13;;
67675;SDS011;54456;48.436;10.028;2024-01-30T06:41:58;34.42;;;12.30;;
67675;SDS011;54456;48.436;10.028;2024-01-30T06:43:28;34.27;;;11.80;;
67675;SDS011;54456;48.436;10.028;2024-01-30T06:44:58;35.47;;;11.87;;
67675;SDS011;54456;48.436;10.028;2024-01-30T06:46:29;31.53;;;10.60;;
67675;SDS011;54456;48.436;10.028;2024-01-30T06:47:59;37.03;;;12.18;;
67675;SDS011;54456;48.436;10.028;2024-01-30T06:49:30;39.97;;;13.38;;
67675;SDS011;54456;48.436;10.028;2024-01-30T06:51:00;32.53;;;12.25;;
67675;SDS011;54456;48.436;10.028;2024-01-30T06:52:30;46.43;;;13.03;;
67675;SDS011;54456;48.436;10.028;2024-01-30T06:54:01;38.17;;;12.43;;
67675;SDS011;54456;48.436;10.028;2024-01-30T06:55:31;42.25;;;13.13;;
67675;SDS011;54456;48.436;10.028;2024-01-30T06:57:01;35.17;;;12.27;;
67675;SDS011;54456;48.436;10.028;2024-01-30T06:58:32;27.98;;;9.93;;
67675;SDS011;54456;48.436;10.028;2024-01-30T07:00:02;26.90;;;8.87;;
67675;SDS011;54456;48.436;10.028;2024-01-30T07:01:33;34.08;;;12.05;;
67675;SDS011;54456;48.436;10.028;2024-01-30T07:03:03;39.22;;;10.93;;
67675;SDS011;54456;48.436;10.028;2024-01-30T07:04:34;37.20;;;11.70;;
67675;SDS011;54456;48.436;10.028;2024-01-30T07:06:05;31.98;;;10.00;;
67675;SDS011;54456;48.436;10.028;2024-01-30T07:07:35;14.98;;;5.28;;
67675;SDS011;54456;48.436;10.028;2024-01-30T07:09:06;34.42;;;10.48;;
67675;SDS011;54456;48.436;10.028;2024-01-30T07:10:36;29.07;;;8.90;;
67675;SDS011;54456;48.436;10.028;2024-01-30T07:12:06;34.92;;;12.40;;
67675;SDS011;54456;48.436;10.028;2024-01-30T07:13:37;25.45;;;9.18;;
67675;SDS011;54456;48.436;10.028;2024-01-30T07:15:07;26.23;;;9.52;;
67675;SDS011;54456;48.436;10.028;2024-01-30T07:16:38;33.58;;;10.18;;
67675;SDS011;54456;48.436;10.028;2024-01-30T07:18:09;27.93;;;9.30;;
67675;SDS011;54456;48.436;10.028;2024-01-30T07:19:39;22.90;;;8.82;;
67675;SDS011;54456;48.436;10.028;2024-01-30T07:21:10;29.67;;;11.17;;
67675;SDS011;54456;48.436;10.028;2024-01-30T07:22:40;35.23;;;10.97;;
67675;SDS011;54456;48.436;10.028;2024-01-30T07:24:11;42.42;;;14.52;;
67675;SDS011;54456;48.436;10.028;2024-01-30T07:25:42;38.22;;;13.25;;
67675;SDS011;54456;48.436;10.028;2024-01-30T07:27:14;35.97;;;13.75;;
67675;SDS011;54456;48.436;10.028;2024-01-30T07:28:44;35.83;;;12.25;;
67675;SDS011;54456;48.436;10.028;2024-01-30T07:30:14;33.43;;;11.53;;
67675;SDS011;54456;48.436;10.028;2024-01-30T07:31:47;38.30;;;12.93;;
67675;SDS011;54456;48.436;10.028;2024-01-30T07:33:17;30.07;;;11.03;;
67675;SDS011;54456;48.436;10.028;2024-01-30T07:34:47;30.37;;;11.73;;
67675;SDS011;54456;48.436;10.028;2024-01-30T07:36:18;38.05;;;12.27;;
67675;SDS011;54456;48.436;10.028;2024-01-30T07:37:48;34.33;;;12.10;;
67675;SDS011;54456;48.436;10.028;2024-01-30T07:39:18;38.40;;;12.97;;
67675;SDS011;54456;48.436;10.028;2024-01-30T07:40:49;36.33;;;12.97;;
67675;SDS011;54456;48.436;10.028;2024-01-30T07:42:19;34.65;;;11.95;;
67675;SDS011;54456;48.436;10.028;2024-01-30T07:43:49;40.57;;;12.07;;
67675;SDS011;54456;48.436;10.028;2024-01-30T07:45:20;37.93;;;12.87;;
67675;SDS011;54456;48.436;10.028;2024-01-30T07:46:52;40.42;;;11.80;;
67675;SDS011;54456;48.436;10.028;2024-01-30T07:48:22;41.53;;;12.85;;
67675;SDS011;54456;48.436;10.028;2024-01-30T07:49:53;38.50;;;13.43;;
67675;SDS011;54456;48.436;10.028;2024-01-30T07:51:24;21.92;;;9.15;;
67675;SDS011;54456;48.436;10.028;2024-01-30T07:52:55;32.03;;;11.63;;
67675;SDS011;54456;48.436;10.028;2024-01-30T07:54:26;9.30;;;3.65;;
67675;SDS011;54456;48.436;10.028;2024-01-30T07:55:57;24.15;;;8.90;;
67675;SDS011;54456;48.436;10.028;2024-01-30T07:57:27;19.08;;;6.43;;
67675;SDS011;54456;48.436;10.028;2024-01-30T07:58:58;16.70;;;6.87;;
67675;SDS011;54456;48.436;10.028;2024-01-30T08:00:28;26.13;;;10.33;;
67675;SDS011;54456;48.436;10.028;2024-01-30T08:01:59;25.25;;;10.07;;
67675;SDS011;54456;48.436;10.028;2024-01-30T08:03:29;19.07;;;7.87;;
67675;SDS011;54456;48.436;10.028;2024-01-30T08:04:59;19.23;;;7.77;;
67675;SDS011;54456;48.436;10.028;2024-01-30T08:06:30;24.77;;;10.03;;
67675;SDS011;54456;48.436;10.028;2024-01-30T08:08:00;27.33;;;9.93;;
67675;SDS011;54456;48.436;10.028;2024-01-30T08:09:30;23.37;;;8.60;;
67675;SDS011;54456;48.436;10.028;2024-01-30T08:11:01;21.83;;;9.43;;
67675;SDS011;54456;48.436;10.028;2024-01-30T08:12:31;25.58;;;9.20;;
67675;SDS011;54456;48.436;10.028;2024-01-30T08:14:01;29.80;;;10.83;;
67675;SDS011;54456;48.436;10.028;2024-01-30T08:15:32;27.37;;;10.20;;
67675;SDS011;54456;48.436;10.028;2024-01-30T08:17:02;25.63;;;9.70;;
67675;SDS011;54456;48.436;10.028;2024-01-30T08:18:33;29.35;;;10.05;;
67675;SDS011;54456;48.436;10.028;2024-01-30T08:20:03;33.07;;;11.67;;
67675;SDS011;54456;48.436;10.028;2024-01-30T08:21:34;23.95;;;8.88;;
67675;SDS011;54456;48.436;10.028;2024-01-30T08:23:07;29.00;;;9.23;;
67675;SDS011;54456;48.436;10.028;2024-01-30T08:24:38;33.60;;;12.57;;
67675;SDS011;54456;48.436;10.028;2024-01-30T08:26:10;32.30;;;11.52;;
67675;SDS011;54456;48.436;10.028;2024-01-30T08:27:40;30.42;;;12.57;;
67675;SDS011;54456;48.436;10.028;2024-01-30T08:29:11;29.73;;;12.30;;
67675;SDS011;54456;48.436;10.028;2024-01-30T08:30:41;37.50;;;13.23;;
67675;SDS011;54456;48.436;10.028;2024-01-30T08:32:11;29.60;;;11.25;;
67675;SDS011;54456;48.436;10.028;2024-01-30T08:33:42;25.48;;;9.38;;
67675;SDS011;54456;48.436;10.028;2024-01-30T08:35:12;23.88;;;9.43;;
67675;SDS011;54456;48.436;10.028;2024-01-30T08:36:45;29.95;;;11.20;;
67675;SDS011;54456;48.436;10.028;2024-01-30T08:38:15;26.13;;;10.50;;
67675;SDS011;54456;48.436;10.028;2024-01-30T08:39:46;26.73;;;10.07;;
67675;SDS011;54456;48.436;10.028;2024-01-30T08:41:16;25.70;;;10.43;;
67675;SDS011;54456;48.436;10.028;2024-01-30T08:42:47;25.05;;;9.50;;
67675;SDS011;54456;48.436;10.028;2024-01-30T08:44:17;28.00;;;11.43;;
67675;SDS011;54456;48.436;10.028;2024-01-30T08:45:47;26.30;;;9.77;;
67675;SDS011;54456;48.436;10.028;2024-01-30T08:47:18;24.08;;;9.25;;
67675;SDS011;54456;48.436;10.028;2024-01-30T08:48:48;24.70;;;10.10;;
67675;SDS011;54456;48.436;10.028;2024-01-30T08:50:19;24.27;;;8.67;;
67675;SDS011;54456;48.436;10.028;2024-01-30T08:51:49;24.43;;;9.63;;
67675;SDS011;54456;48.436;10.028;2024-01-30T08:53:20;23.52;;;8.48;;
67675;SDS011;54456;48.436;10.028;2024-01-30T08:54:51;22.65;;;9.63;;
67675;SDS011;54456;48.436;10.028;2024-01-30T08:56:21;23.08;;;8.73;;
67675;SDS011;54456;48.436;10.028;2024-01-30T08:57:52;21.98;;;9.00;;
67675;SDS011;54456;48.436;10.028;2024-01-30T08:59:26;25.33;;;8.93;;
67675;SDS011;54456;48.436;10.028;2024-01-30T09:00:56;23.40;;;9.43;;
67675;SDS011;54456;48.436;10.028;2024-01-30T09:02:26;25.97;;;9.07;;
67675;SDS011;54456;48.436;10.028;2024-01-30T09:03:57;25.17;;;9.10;;
67675;SDS011;54456;48.436;10.028;2024-01-30T09:05:27;26.95;;;10.00;;
67675;SDS011;54456;48.436;10.028;2024-01-30T09:06:57;25.73;;;8.50;;
67675;SDS011;54456;48.436;10.028;2024-01-30T09:08:28;24.57;;;9.47;;
67675;SDS011;54456;48.436;10.028;2024-01-30T09:09:58;25.57;;;10.50;;
67675;SDS011;54456;48.436;10.028;2024-01-30T09:11:28;25.93;;;9.40;;
67675;SDS011;54456;48.436;10.028;2024-01-30T09:12:59;27.10;;;10.30;;
67675;SDS011;54456;48.436;10.028;2024-01-30T09:14:29;25.63;;;9.73;;
67675;SDS011;54456;48.436;10.028;2024-01-30T09:15:59;27.30;;;10.55;;
67675;SDS011;54456;48.436;10.028;2024-01-30T09:17:30;28.45;;;9.35;;
67675;SDS011;54456;48.436;10.028;2024-01-30T09:19:01;23.90;;;9.73;;
67675;SDS011;54456;48.436;10.028;2024-01-30T09:20:31;31.35;;;10.57;;
67675;SDS011;54456;48.436;10.028;2024-01-30T09:22:01;24.03;;;8.83;;
67675;SDS011;54456;48.436;10.028;2024-01-30T09:23:32;23.05;;;9.05;;
67675;SDS011;54456;48.436;10.028;2024-01-30T09:25:03;27.77;;;11.68;;
67675;SDS011;54456;48.436;10.028;2024-01-30T09:26:34;24.38;;;9.13;;
67675;SDS011;54456;48.436;10.028;2024-01-30T09:28:04;23.47;;;9.20;;
67675;SDS011;54456;48.436;10.028;2024-01-30T09:29:35;24.98;;;9.90;;
67675;SDS011;54456;48.436;10.028;2024-01-30T09:31:09;21.20;;;8.63;;
67675;SDS011;54456;48.436;10.028;2024-01-30T09:32:40;27.15;;;9.73;;
67675;SDS011;54456;48.436;10.028;2024-01-30T09:34:11;24.00;;;9.32;;
67675;SDS011;54456;48.436;10.028;2024-01-30T09:35:41;24.60;;;9.57;;
67675;SDS011;54456;48.436;10.028;2024-01-30T09:37:12;26.13;;;10.17;;
67675;SDS011;54456;48.436;10.028;2024-01-30T09:38:45;25.48;;;9.40;;
67675;SDS011;54456;48.436;10.028;2024-01-30T09:40:15;26.70;;;8.95;;
67675;SDS011;54456;48.436;10.028;2024-01-30T09:41:49;22.92;;;9.65;;
67675;SDS011;54456;48.436;10.028;2024-01-30T09:43:35;24.40;;;9.13;;
67675;SDS011;54456;48.436;10.028;2024-01-30T09:45:06;25.15;;;9.50;;
67675;SDS011;54456;48.436;10.028;2024-01-30T09:46:36;26.77;;;9.63;;
67675;SDS011;54456;48.436;10.028;2024-01-30T09:48:07;25.02;;;9.55;;
67675;SDS011;54456;48.436;10.028;2024-01-30T09:49:38;26.38;;;10.48;;
67675;SDS011;54456;48.436;10.028;2024-01-30T09:51:09;24.13;;;9.47;;
67675;SDS011;54456;48.436;10.028;2024-01-30T09:52:39;25.30;;;9.77;;
67675;SDS011;54456;48.436;10.028;2024-01-30T09:54:10;24.98;;;9.75;;
67675;SDS011;54456;48.436;10.028;2024-01-30T09:55:42;27.02;;;9.25;;
67675;SDS011;54456;48.436;10.028;2024-01-30T09:57:13;24.85;;;10.02;;
67675;SDS011;54456;48.436;10.028;2024-01-30T09:58:43;24.85;;;9.55;;
67675;SDS011;54456;48.436;10.028;2024-01-30T10:00:14;20.43;;;8.20;;
67675;SDS011;54456;48.436;10.028;2024-01-30T10:01:44;27.15;;;11.45;;
67675;SDS011;54456;48.436;10.028;2024-01-30T10:03:15;26.70;;;9.77;;
67675;SDS011;54456;48.436;10.028;2024-01-30T10:04:48;21.73;;;8.48;;
67675;SDS011;54456;48.436;10.028;2024-01-30T10:06:19;25.95;;;8.90;;
67675;SDS011;54456;48.436;10.028;2024-01-30T10:07:56;26.20;;;9.63;;
67675;SDS011;54456;48.436;10.028;2024-01-30T10:09:27;25.25;;;8.90;;
67675;SDS011;54456;48.436;10.028;2024-01-30T10:10:57;23.15;;;9.55;;
67675;SDS011;54456;48.436;10.028;2024-01-30T10:12:29;23.85;;;9.05;;
67675;SDS011;54456;48.436;10.028;2024-01-30T10:13:59;26.65;;;8.90;;
67675;SDS011;54456;48.436;10.028;2024-01-30T10:15:30;21.67;;;8.32;;
67675;SDS011;54456;48.436;10.028;2024-01-30T10:17:01;24.83;;;9.30;;
67675;SDS011;54456;48.436;10.028;2024-01-30T10:18:31;24.90;;;9.23;;
67675;SDS011;54456;48.436;10.028;2024-01-30T10:20:04;27.20;;;11.13;;
67675;SDS011;54456;48.436;10.028;2024-01-30T10:21:35;24.10;;;8.82;;
67675;SDS011;54456;48.436;10.028;2024-01-30T10:23:05;23.83;;;9.77;;
67675;SDS011;54456;48.436;10.028;2024-01-30T10:24:36;26.27;;;10.80;;
67675;SDS011;54456;48.436;10.028;2024-01-30T10:26:07;24.77;;;9.35;;
67675;SDS011;54456;48.436;10.028;2024-01-30T10:27:39;22.13;;;9.50;;
67675;SDS011;54456;48.436;10.028;2024-01-30T10:29:09;24.98;;;9.73;;
67675;SDS011;54456;48.436;10.028;2024-01-30T10:30:40;25.58;;;9.05;;
67675;SDS011;54456;48.436;10.028;2024-01-30T10:32:10;22.93;;;9.50;;
67675;SDS011;54456;48.436;10.028;2024-01-30T10:33:40;23.98;;;8.65;;
67675;SDS011;54456;48.436;10.028;2024-01-30T10:35:11;26.38;;;9.07;;
67675;SDS011;54456;48.436;10.028;2024-01-30T10:36:41;24.33;;;10.07;;
67675;SDS011;54456;48.436;10.028;2024-01-30T10:38:13;22.30;;;9.43;;
67675;SDS011;54456;48.436;10.028;2024-01-30T10:39:45;23.33;;;8.88;;
67675;SDS011;54456;48.436;10.028;2024-01-30T10:41:16;25.15;;;9.05;;
67675;SDS011;54456;48.436;10.028;2024-01-30T10:42:49;22.58;;;9.55;;
67675;SDS011;54456;48.436;10.028;2024-01-30T10:44:25;23.30;;;9.68;;
67675;SDS011;54456;48.436;10.028;2024-01-30T10:45:57;26.80;;;9.55;;
67675;SDS011;54456;48.436;10.028;2024-01-30T10:47:28;23.92;;;9.63;;
67675;SDS011;54456;48.436;10.028;2024-01-30T10:48:59;24.50;;;8.93;;
67675;SDS011;54456;48.436;10.028;2024-01-30T10:50:30;24.90;;;9.10;;
67675;SDS011;54456;48.436;10.028;2024-01-30T10:52:00;26.75;;;11.82;;
67675;SDS011;54456;48.436;10.028;2024-01-30T10:53:32;28.10;;;11.80;;
67675;SDS011;54456;48.436;10.028;2024-01-30T10:55:03;26.50;;;10.10;;
67675;SDS011;54456;48.436;10.028;2024-01-30T10:56:35;26.08;;;9.80;;
67675;SDS011;54456;48.436;10.028;2024-01-30T10:58:06;29.40;;;10.27;;
67675;SDS011;54456;48.436;10.028;2024-01-30T10:59:37;24.90;;;10.50;;
67675;SDS011;54456;48.436;10.028;2024-01-30T11:01:07;27.02;;;11.20;;
67675;SDS011;54456;48.436;10.028;2024-01-30T11:02:42;27.17;;;10.38;;
67675;SDS011;54456;48.436;10.028;2024-01-30T11:04:14;26.85;;;10.50;;
67675;SDS011;54456;48.436;10.028;2024-01-30T11:05:49;28.20;;;11.00;;
67675;SDS011;54456;48.436;10.028;2024-01-30T11:07:24;23.45;;;9.85;;
67675;SDS011;54456;48.436;10.028;2024-01-30T11:09:02;23.13;;;10.15;;
67675;SDS011;54456;48.436;10.028;2024-01-30T11:10:46;25.40;;;10.18;;
67675;SDS011;54456;48.436;10.028;2024-01-30T11:12:21;28.02;;;10.50;;
67675;SDS011;54456;48.436;10.028;2024-01-30T11:13:54;28.10;;;10.50;;
67675;SDS011;54456;48.436;10.028;2024-01-30T11:15:25;28.43;;;12.17;;
67675;SDS011;54456;48.436;10.028;2024-01-30T11:16:59;27.67;;;10.43;;
67675;SDS011;54456;48.436;10.028;2024-01-30T11:18:30;27.27;;;10.48;;
67675;SDS011;54456;48.436;10.028;2024-01-30T11:20:01;24.27;;;9.98;;
67675;SDS011;54456;48.436;10.028;2024-01-30T11:21:32;28.80;;;10.88;;
67675;SDS011;54456;48.436;10.028;2024-01-30T11:23:03;23.17;;;10.15;;
67675;SDS011;54456;48.436;10.028;2024-01-30T11:24:39;24.17;;;10.30;;
67675;SDS011;54456;48.436;10.028;2024-01-30T11:26:13;27.45;;;10.55;;
67675;SDS011;54456;48.436;10.028;2024-01-30T11:27:46;25.85;;;10.23;;
67675;SDS011;54456;48.436;10.028;2024-01-30T11:29:20;24.75;;;9.70;;
67675;SDS011;54456;48.436;10.028;2024-01-30T11:31:02;24.88;;;10.20;;
67675;SDS011;54456;48.436;10.028;2024-01-30T11:32:33;22.60;;;9.77;;
67675;SDS011;54456;48.436;10.028;2024-01-30T11:34:04;26.77;;;10.00;;
67675;SDS011;54456;48.436;10.028;2024-01-30T11:35:36;25.88;;;10.90;;
67675;SDS011;54456;48.436;10.028;2024-01-30T11:37:09;24.88;;;10.25;;
67675;SDS011;54456;48.436;10.028;2024-01-30T11:38:39;24.85;;;10.60;;
67675;SDS011;54456;48.436;10.028;2024-01-30T11:40:10;26.47;;;9.33;;
67675;SDS011;54456;48.436;10.028;2024-01-30T11:41:40;29.05;;;10.23;;
67675;SDS011;54456;48.436;10.028;2024-01-30T11:43:11;21.88;;;10.15;;
67675;SDS011;54456;48.436;10.028;2024-01-30T11:44:46;22.60;;;9.25;;
67675;SDS011;54456;48.436;10.028;2024-01-30T11:46:17;22.70;;;9.45;;
67675;SDS011;54456;48.436;10.028;2024-01-30T11:47:47;25.60;;;10.27;;
67675;SDS011;54456;48.436;10.028;2024-01-30T11:49:18;23.13;;;9.45;;
67675;SDS011;54456;48.436;10.028;2024-01-30T11:50:48;24.92;;;10.10;;
67675;SDS011;54456;48.436;10.028;2024-01-30T11:52:20;27.58;;;10.65;;
67675;SDS011;54456;48.436;10.028;2024-01-30T11:53:51;26.45;;;9.63;;
67675;SDS011;54456;48.436;10.028;2024-01-30T11:55:24;26.83;;;10.40;;
67675;SDS011;54456;48.436;10.028;2024-01-30T11:56:54;25.13;;;9.63;;
67675;SDS011;54456;48.436;10.028;2024-01-30T11:58:25;23.13;;;9.47;;
67675;SDS011;54456;48.436;10.028;2024-01-30T11:59:56;25.70;;;10.35;;
67675;SDS011;54456;48.436;10.028;2024-01-30T12:01:26;22.70;;;9.98;;
67675;SDS011;54456;48.436;10.028;2024-01-30T12:02:57;28.50;;;9.90;;
67675;SDS011;54456;48.436;10.028;2024-01-30T12:04:28;24.67;;;9.90;;
67675;SDS011;54456;48.436;10.028;2024-01-30T12:05:59;25.40;;;11.00;;
67675;SDS011;54456;48.436;10.028;2024-01-30T12:07:30;21.17;;;8.00;;
67675;SDS011;54456;48.436;10.028;2024-01-30T12:09:01;20.50;;;9.17;;
67675;SDS011;54456;48.436;10.028;2024-01-30T12:10:36;28.38;;;9.98;;
67675;SDS011;54456;48.436;10.028;2024-01-30T12:12:06;22.53;;;9.40;;
67675;SDS011;54456;48.436;10.028;2024-01-30T12:13:41;26.30;;;10.20;;
67675;SDS011;54456;48.436;10.028;2024-01-30T12:15:12;23.87;;;10.17;;
67675;SDS011;54456;48.436;10.028;2024-01-30T12:16:43;22.42;;;9.35;;
67675;SDS011;54456;48.436;10.028;2024-01-30T12:18:13;26.37;;;11.60;;
67675;SDS011;54456;48.436;10.028;2024-01-30T12:19:43;25.95;;;9.93;;
67675;SDS011;54456;48.436;10.028;2024-01-30T12:21:17;24.90;;;9.20;;
67675;SDS011;54456;48.436;10.028;2024-01-30T12:22:48;22.55;;;9.48;;
67675;SDS011;54456;48.436;10.028;2024-01-30T12:24:19;24.95;;;9.57;;
67675;SDS011;54456;48.436;10.028;2024-01-30T12:25:49;25.45;;;10.55;;
67675;SDS011;54456;48.436;10.028;2024-01-30T12:27:19;23.83;;;9.38;;
67675;SDS011;54456;48.436;10.028;2024-01-30T12:28:50;23.67;;;9.80;;
67675;SDS011;54456;48.436;10.028;2024-01-30T12:30:21;23.60;;;9.25;;
67675;SDS011;54456;48.436;10.028;2024-01-30T12:31:54;28.23;;;9.43;;
67675;SDS011;54456;48.436;10.028;2024-01-30T12:33:26;23.00;;;9.23;;